KLCI

Laconia Municipal Airport

Laconia, New Hampshire, USA
METAR KLCI 181256Z AUTO 30008G18KT 10SM OVC035 M08/M13 A2978 RMK AO2 SLP104 T10781133 FZRANO $
Observed Flight Rules
Dec-18 @ 12:56 UTC (13 minutes ago) Visual Flight Rules
Wind Visibility Clouds
300° at 8 knots
 Gusting to 18 knots
10 miles
  • Overcast at 3,500' AGL
Temperatures Readings
Current -8°C / 18°F
Dewpoint -13°C / 9°F
Humidity 68%
Altimeter 29.78" Hg
Pressure 1010.4 hPa
Elevation 166
METAR KLCI 181256Z AUTO 30008G18KT 10SM OVC035 M08/M13 A2978 RMK AO2 SLP104 T10781133 FZRANO $
Observed Flight Rules
Dec-18 @ 12:56 UTC
(13 minutes ago)
VFR
Wind Visibility
300° at 8 knots
 Gusting to 18 knots
10 miles
Clouds
  • Overcast at 3,500' AGL
Temperature Dewpoint
-8°C / 18°F -13°C / 9°F
Humidity Altimeter Pressure
68% 29.78" Hg 1010.4 hPa